الصفحة الرئيسية
METAR-TAF:

METAR-TAF

مطار :

Window Rock Airport

Window Rock, أريزونا, الولايات المتحدة

دائرة عرض: 35-39N, خط طول: 109-04W, ارتفاع: 2055 متر

مراقبة الطقس الحالي

تاريخ ووقت الإصدار 28 دقيقة قبل الساعة 17:53UTC
ريح 14 عقدة من الغرب
درجة الحرارة 0°درجة مئوية
الرطوبة 55%
ضغط 1010 hPa
الرؤية: 16.1 كم
ملبد بالغيوم على ارتفاع 8000 قدم

METAR: KRQE 161753Z AUTO 27014KT 10SM OVC080 00/M08 A2982 RMK AO2 SNE20 SLP069 P0001 60003 T00001078 10011 21022 50002

زمن: 11:21 (18:21 UTC)


TAF: مفقودة

أرصاد الطقس والتوقعات من أكثر من 4000 مطار (تقارير الطقس للمطار METAR والتنبؤ بالطقس بالمطارTAF).

المحطات المتاحة هي النقط الصفراء والحمراء على الخريطة.

حرك المؤشر فوق النقطة لمعرفة اسم المحطة.

ثم انقر لمعرفة أرصاد وتوقعات الطقس.

لتغيير الخارطة: اضغط على الأزرار الخضراء مع رمز الصليب الأسود للتكبير. على الزر الأخضر مع شرطة للتصغير، أو على الأسهم الخضراء للخرائط المجاورة.


METAR-TAF: